Accueil
METAR-TAF:

METAR-TAF

Aéroports :

Aéroport international Léon-Mba

Libreville, Gabon

latitude: 00-27N, longitude: 009-25E, altitude: 12 m

Observation

Le bulletin a été fait il y a 1 heure et 13 minutes, à 07:00 UTC
Vent 3 kt de est
Température 23°C
Humidité 89%
Pression 1015 hPa
Visibilité: 9000 m
Quelques nuages à une hauteur de 1000 ft
Nuages épars à une hauteur de 2800 ft

METAR: FOOL 210700Z 10003KT 9000 FEW010 SCT028 23/21 Q1015 NOSIG

Heure: 09:13 (08:13 UTC)

Prévision

Le bulletin a été fait il y a 3 heures et 13 minutes, à 05:00 UTC
Prévision valable du 21 à 06 UTC au 22 à 12 UTC
Vent 7 kt de sud
Visibilité 10 km ou plus
Nuages épars à une hauteur de 1000 ft
Nuages fragmentés à une hauteur de 3000 ft

TAF: FOOL 210500Z 2106/2212 18007KT 9999 SCT010 BKN030

Observations et prévisions météorologiques de plus de 4000 aéroports (messages METAR et TAF).

Les stations disponibles sont représentées par des disques jaunes et rouges sur la carte.

Passer la souris dessus pour voir le nom de la station.

Cliquer dessus pour voir les observations et prévisions météorologiques.

Pour changer de carte: cliquez sur les boutons verts avec une croix noire pour zoomer, sur le bouton vert avec un tiret pour effectuer un zoom arrière, ou sur les flèches vertes pour les cartes adjacentes.


METAR-TAF: